Terminal Aerodrome Forecast
Issued by NWS Cleveland, OH

Home | Current Version | Previous Version | Text Only | Print | Product List | Glossary Off
Versions: 1 2 3 4 5 6 7 8 9 10 11 12 13 14 15 16 17 18 19 20

000
FTUS41 KCLE 201100
TAFYNG
TAF
KYNG 201140Z 2012/2112 24014KT P6SM -SHSN OVC045
     FM201400 26015G25KT P6SM OVC050
     FM210200 26012KT 5SM -SHSN OVC025
     FM210500 26010KT 2SM -SHSN OVC012=

USA.gov is the U.S. government's official web portal to all federal, state and local government web resources and services.